createdAt,value
2023-04-02T00:00:19.594Z,92.72
2023-04-02T00:01:19.576Z,91.99
2023-04-02T00:02:19.564Z,91.93
2023-04-02T00:03:19.614Z,92.14
2023-04-02T00:04:19.520Z,92.14
2023-04-02T00:05:19.543Z,92.76
2023-04-02T00:06:19.501Z,93.33
2023-04-02T00:07:19.480Z,93.13
2023-04-02T00:08:19.486Z,93.02
2023-04-02T00:09:19.456Z,92.82
2023-04-02T00:10:19.451Z,92.41
2023-04-02T00:11:19.428Z,92.51
2023-04-02T00:12:19.426Z,92.61
2023-04-02T00:13:19.396Z,92.35
2023-04-02T00:14:19.440Z,92.45
2023-04-02T00:15:19.369Z,92.93
2023-04-02T00:16:19.395Z,93.96
2023-04-02T00:17:19.348Z,93.75
2023-04-02T00:18:19.373Z,93.75
2023-04-02T00:19:19.336Z,93.96
2023-04-02T00:20:19.329Z,94.27
2023-04-02T00:21:19.308Z,94.17
2023-04-02T00:22:19.321Z,93.85
2023-04-02T00:23:19.272Z,93.85
2023-04-02T00:24:19.260Z,94.27
2023-04-02T00:25:19.258Z,93.75
2023-04-02T00:26:19.250Z,93.23
2023-04-02T00:27:19.222Z,93.02
2023-04-02T00:28:19.246Z,93.44
2023-04-02T00:29:19.212Z,93.49
2023-04-02T00:30:19.214Z,93.33
2023-04-02T00:31:19.194Z,93.33
2023-04-02T00:32:19.986Z,93.85
2023-04-02T00:33:19.169Z,93.54
2023-04-02T00:34:19.147Z,92.93
2023-04-02T00:35:19.136Z,93.02
2023-04-02T00:36:19.182Z,93.13
2023-04-02T00:37:19.099Z,92.55
2023-04-02T00:38:19.115Z,92.66
2023-04-02T00:39:19.078Z,92.03
2023-04-02T00:40:19.072Z,92.24
2023-04-02T00:41:19.064Z,92.24
2023-04-02T00:42:19.044Z,91.93
2023-04-02T00:43:19.044Z,92.35
2023-04-02T00:44:19.018Z,92.86
2023-04-02T00:45:19.007Z,92.55
2023-04-02T00:46:19.014Z,92.55
2023-04-02T00:47:18.983Z,92.55
2023-04-02T00:48:18.964Z,92.55
2023-04-02T00:49:18.945Z,93.18
2023-04-02T00:50:18.962Z,92.66
2023-04-02T00:51:18.929Z,92.55
2023-04-02T00:52:18.929Z,92.55
2023-04-02T00:53:18.891Z,92.24
2023-04-02T00:54:18.907Z,92.14
2023-04-02T00:55:18.880Z,91.83
2023-04-02T00:56:18.854Z,91.62
2023-04-02T00:57:18.949Z,91.62
2023-04-02T00:58:18.850Z,91.83
2023-04-02T00:59:18.816Z,91.93
2023-04-02T01:00:18.817Z,92.45
2023-04-02T01:01:18.830Z,92.55
2023-04-02T01:02:18.808Z,92.24
2023-04-02T01:03:18.868Z,91.31
2023-04-02T01:04:18.783Z,91.93
2023-04-02T01:05:18.738Z,91.10
2023-04-02T01:06:18.738Z,91.31
2023-04-02T01:07:18.738Z,91.62
2023-04-02T01:08:18.721Z,91.83
2023-04-02T01:09:18.689Z,91.31
2023-04-02T01:10:18.672Z,91.83
2023-04-02T01:11:18.657Z,91.66
2023-04-02T01:12:18.654Z,92.07
2023-04-02T01:13:18.643Z,92.76
2023-04-02T01:14:18.636Z,92.07
2023-04-02T01:15:18.614Z,91.45
2023-04-02T01:16:18.636Z,91.93
2023-04-02T01:17:18.698Z,92.24
2023-04-02T01:18:18.588Z,91.35
2023-04-02T01:19:18.612Z,90.31
2023-04-02T01:20:18.545Z,91.24
2023-04-02T01:21:18.549Z,91.76
2023-04-02T01:22:18.531Z,91.97
2023-04-02T01:23:18.504Z,91.86
2023-04-02T01:24:18.504Z,92.07
2023-04-02T01:25:18.508Z,91.55
2023-04-02T01:26:18.487Z,91.86
2023-04-02T01:27:18.455Z,91.76
2023-04-02T01:28:18.473Z,91.35
2023-04-02T01:29:18.478Z,90.52
2023-04-02T01:30:18.439Z,91.14
2023-04-02T01:31:18.449Z,91.97
2023-04-02T01:32:18.410Z,92.14
2023-04-02T01:33:18.376Z,92.18
2023-04-02T01:34:18.357Z,91.83
2023-04-02T01:35:18.369Z,91.52
2023-04-02T01:36:18.353Z,91.83
2023-04-02T01:37:18.325Z,91.62
2023-04-02T01:38:18.304Z,91.20
2023-04-02T01:39:18.317Z,90.31
2023-04-02T01:40:18.312Z,90.31
2023-04-02T01:41:18.282Z,90.93
2023-04-02T01:42:18.270Z,91.52
2023-04-02T01:43:18.264Z,91.62
2023-04-02T01:44:18.241Z,91.41
2023-04-02T01:45:18.238Z,91.31
2023-04-02T01:46:18.256Z,90.58
2023-04-02T01:47:18.199Z,91.10
2023-04-02T01:48:18.177Z,92.14
2023-04-02T01:49:18.179Z,91.31
2023-04-02T01:50:18.170Z,90.17
2023-04-02T01:51:18.171Z,89.86
2023-04-02T01:52:18.126Z,90.17
2023-04-02T01:53:18.126Z,90.58
2023-04-02T01:54:18.136Z,89.79
2023-04-02T01:55:18.150Z,90.00
2023-04-02T01:56:18.092Z,89.37
2023-04-02T01:57:18.134Z,89.37
2023-04-02T01:58:18.050Z,89.58
2023-04-02T01:59:18.057Z,89.89
2023-04-02T02:00:18.030Z,90.20
2023-04-02T02:01:18.355Z,90.83
2023-04-02T02:02:18.018Z,90.41
2023-04-02T02:03:18.032Z,90.93
2023-04-02T02:04:17.978Z,90.93
2023-04-02T02:05:17.977Z,91.14
2023-04-02T02:06:17.964Z,91.14
2023-04-02T02:07:17.960Z,91.41
2023-04-02T02:08:17.933Z,91.31
2023-04-02T02:09:17.926Z,89.69
2023-04-02T02:10:17.909Z,89.69
2023-04-02T02:11:17.931Z,90.37
2023-04-02T02:12:17.876Z,91.00
2023-04-02T02:13:17.877Z,91.20
2023-04-02T02:14:17.844Z,90.69
2023-04-02T02:15:17.833Z,90.58
2023-04-02T02:16:17.894Z,90.00
2023-04-02T02:17:17.845Z,90.06
2023-04-02T02:18:17.791Z,89.86
2023-04-02T02:19:17.797Z,88.65
2023-04-02T02:20:17.766Z,89.13
2023-04-02T02:21:17.785Z,89.69
2023-04-02T02:22:17.750Z,89.89
2023-04-02T02:23:17.762Z,88.65
2023-04-02T02:24:17.729Z,89.17
2023-04-02T02:25:17.719Z,89.86
2023-04-02T02:26:17.723Z,89.34
2023-04-02T02:27:17.700Z,89.34
2023-04-02T02:28:17.683Z,89.17
2023-04-02T02:29:17.679Z,89.65
2023-04-02T02:30:17.651Z,89.54
2023-04-02T02:31:17.744Z,89.54
2023-04-02T02:32:17.632Z,88.92
2023-04-02T02:33:17.622Z,88.71
2023-04-02T02:34:17.611Z,88.61
2023-04-02T02:35:17.584Z,89.03
2023-04-02T02:36:17.568Z,88.61
2023-04-02T02:37:17.555Z,89.03
2023-04-02T02:38:17.583Z,89.13
2023-04-02T02:39:17.535Z,89.54
2023-04-02T02:40:17.593Z,89.54
2023-04-02T02:41:17.530Z,88.92
2023-04-02T02:42:17.549Z,88.09
2023-04-02T02:43:17.497Z,88.92
2023-04-02T02:44:17.483Z,89.75
2023-04-02T02:45:17.449Z,89.86
2023-04-02T02:46:17.496Z,89.75
2023-04-02T02:47:17.423Z,89.86
2023-04-02T02:48:17.402Z,87.82
2023-04-02T02:49:17.414Z,88.23
2023-04-02T02:50:17.393Z,88.65
2023-04-02T02:51:17.371Z,88.75
2023-04-02T02:52:17.363Z,89.06
2023-04-02T02:53:17.350Z,89.37
2023-04-02T02:54:17.336Z,89.37
2023-04-02T02:55:17.345Z,89.37
2023-04-02T02:56:17.302Z,89.03
2023-04-02T02:57:17.318Z,88.92
2023-04-02T02:58:17.292Z,89.34
2023-04-02T02:59:17.301Z,89.65
2023-04-02T03:00:17.266Z,89.86
2023-04-02T03:01:17.292Z,89.75
2023-04-02T03:02:21.636Z,88.71
2023-04-02T03:03:17.289Z,88.82
2023-04-02T03:04:17.299Z,89.34
2023-04-02T03:05:17.217Z,89.65
2023-04-02T03:06:17.193Z,89.44
2023-04-02T03:07:17.178Z,89.13
2023-04-02T03:08:17.149Z,88.20
2023-04-02T03:09:17.147Z,88.20
2023-04-02T03:10:17.124Z,87.51
2023-04-02T03:11:17.119Z,87.40
2023-04-02T03:12:17.125Z,88.34
2023-04-02T03:13:17.080Z,88.30
2023-04-02T03:14:17.069Z,88.23
2023-04-02T03:15:17.095Z,88.51
2023-04-02T03:16:17.097Z,89.44
2023-04-02T03:17:17.033Z,88.34
2023-04-02T03:18:17.321Z,87.61
2023-04-02T03:19:17.023Z,88.34
2023-04-02T03:20:16.999Z,88.44
2023-04-02T03:21:17.007Z,88.85
2023-04-02T03:22:17.016Z,89.27
2023-04-02T03:23:18.376Z,89.48
2023-04-02T03:24:16.945Z,89.58
2023-04-02T03:25:16.945Z,89.06
2023-04-02T03:26:16.923Z,89.17
2023-04-02T03:27:16.927Z,88.54
2023-04-02T03:28:16.937Z,87.40
2023-04-02T03:29:16.892Z,88.85
2023-04-02T03:30:16.872Z,89.37
2023-04-02T03:31:16.914Z,89.48
2023-04-02T03:32:16.857Z,88.65
2023-04-02T03:33:16.897Z,88.34
2023-04-02T03:34:16.876Z,88.65
2023-04-02T03:35:16.806Z,88.23
2023-04-02T03:36:16.871Z,88.23
2023-04-02T03:37:16.791Z,88.85
2023-04-02T03:38:16.800Z,89.27
2023-04-02T03:39:16.771Z,89.37
2023-04-02T03:40:16.742Z,89.03
2023-04-02T03:41:16.771Z,87.92
2023-04-02T03:42:16.764Z,88.02
2023-04-02T03:43:16.727Z,87.82
2023-04-02T03:44:16.714Z,87.51
2023-04-02T03:45:16.702Z,88.02
2023-04-02T03:46:16.698Z,88.23
2023-04-02T03:47:16.650Z,88.34
2023-04-02T03:48:16.661Z,87.51
2023-04-02T03:49:16.640Z,87.51
2023-04-02T03:50:16.651Z,88.23
2023-04-02T03:51:16.624Z,88.65
2023-04-02T03:52:16.586Z,88.54
2023-04-02T03:53:16.580Z,87.92
2023-04-02T03:54:16.561Z,88.13
2023-04-02T03:55:16.555Z,88.13
2023-04-02T03:56:16.543Z,88.85
2023-04-02T03:57:16.561Z,89.23
2023-04-02T03:58:16.521Z,86.78
2023-04-02T03:59:16.502Z,86.05
2023-04-02T04:00:16.502Z,87.30
2023-04-02T04:01:16.460Z,88.02
2023-04-02T04:02:16.478Z,88.44
2023-04-02T04:03:16.457Z,88.54
2023-04-02T04:04:16.543Z,88.13
2023-04-02T04:05:16.441Z,88.54
2023-04-02T04:06:16.434Z,88.23
2023-04-02T04:07:16.401Z,87.82
2023-04-02T04:08:16.384Z,87.51
2023-04-02T04:09:16.372Z,87.92
2023-04-02T04:10:16.370Z,87.71
2023-04-02T04:11:16.366Z,86.68
2023-04-02T04:12:16.340Z,87.40
2023-04-02T04:13:16.316Z,87.61
2023-04-02T04:14:16.291Z,87.82
2023-04-02T04:15:16.294Z,87.30
2023-04-02T04:16:16.313Z,88.54
2023-04-02T04:17:16.277Z,89.17
2023-04-02T04:18:16.256Z,88.54
2023-04-02T04:19:16.264Z,88.13
2023-04-02T04:20:16.233Z,88.23
2023-04-02T04:21:16.196Z,87.51
2023-04-02T04:22:16.200Z,87.61
2023-04-02T04:23:16.170Z,88.09
2023-04-02T04:24:16.164Z,88.30
2023-04-02T04:25:16.158Z,88.40
2023-04-02T04:26:16.168Z,87.78
2023-04-02T04:27:16.125Z,87.26
2023-04-02T04:28:16.127Z,87.37
2023-04-02T04:29:16.110Z,87.57
2023-04-02T04:30:16.114Z,87.47
2023-04-02T04:31:16.079Z,86.74
2023-04-02T04:32:16.125Z,86.74
2023-04-02T04:33:16.059Z,87.57
2023-04-02T04:34:16.056Z,87.99
2023-04-02T04:35:23.065Z,87.37
2023-04-02T04:36:16.066Z,87.16
2023-04-02T04:37:16.015Z,86.88
2023-04-02T04:38:15.989Z,86.95
2023-04-02T04:39:15.977Z,87.16
2023-04-02T04:40:15.971Z,87.26
2023-04-02T04:41:15.983Z,87.68
2023-04-02T04:42:16.030Z,87.57
2023-04-02T04:43:15.936Z,87.37
2023-04-02T04:44:15.915Z,87.05
2023-04-02T04:45:15.892Z,86.64
2023-04-02T04:46:15.935Z,87.16
2023-04-02T04:47:15.882Z,88.09
2023-04-02T04:48:15.851Z,87.37
2023-04-02T04:49:15.880Z,87.26
2023-04-02T04:50:15.859Z,87.88
2023-04-02T04:51:15.833Z,86.95
2023-04-02T04:52:15.814Z,87.16
2023-04-02T04:53:15.845Z,87.05
2023-04-02T04:54:15.818Z,86.95
2023-04-02T04:55:15.967Z,86.95
2023-04-02T04:56:19.127Z,86.95
2023-04-02T04:57:15.804Z,87.16
2023-04-02T04:58:15.721Z,86.95
2023-04-02T04:59:15.732Z,86.64
2023-04-02T05:00:15.725Z,85.81
2023-04-02T05:01:15.756Z,86.64
2023-04-02T05:02:15.676Z,86.95
2023-04-02T05:03:15.685Z,86.85
2023-04-02T05:04:15.706Z,87.16
2023-04-02T05:05:15.655Z,87.63
2023-04-02T05:06:15.622Z,87.32
2023-04-02T05:07:15.669Z,86.80
2023-04-02T05:08:15.618Z,86.80
2023-04-02T05:09:15.579Z,87.12
2023-04-02T05:10:15.628Z,87.22
2023-04-02T05:11:15.583Z,86.70
2023-04-02T05:12:15.580Z,86.70
2023-04-02T05:13:15.533Z,86.70
2023-04-02T05:14:15.553Z,86.80
2023-04-02T05:15:15.509Z,87.32
2023-04-02T05:16:15.534Z,87.12
2023-04-02T05:17:15.499Z,87.01
2023-04-02T05:18:15.480Z,87.22
2023-04-02T05:19:15.467Z,87.32
2023-04-02T05:20:15.457Z,86.60
2023-04-02T05:21:15.456Z,85.35
2023-04-02T05:22:15.452Z,85.35
2023-04-02T05:23:15.393Z,86.39
2023-04-02T05:24:15.387Z,86.08
2023-04-02T05:25:15.369Z,86.91
2023-04-02T05:26:15.471Z,87.12
2023-04-02T05:27:15.369Z,87.22
2023-04-02T05:28:15.413Z,87.12
2023-04-02T05:29:15.348Z,86.39
2023-04-02T05:30:15.365Z,86.70
2023-04-02T05:31:15.328Z,87.12
2023-04-02T05:32:15.335Z,87.63
2023-04-02T05:33:15.304Z,87.74
2023-04-02T05:34:15.280Z,87.90
2023-04-02T05:35:15.277Z,87.80
2023-04-02T05:36:15.370Z,87.38
2023-04-02T05:37:15.240Z,86.04
2023-04-02T05:38:15.236Z,84.48
2023-04-02T05:39:15.231Z,84.59
2023-04-02T05:40:15.181Z,84.59
2023-04-02T05:41:15.222Z,84.86
2023-04-02T05:42:15.188Z,85.27
2023-04-02T05:43:15.157Z,84.96
2023-04-02T05:44:15.251Z,84.65
2023-04-02T05:45:15.146Z,84.03
2023-04-02T05:46:15.209Z,83.83
2023-04-02T05:47:15.136Z,84.13
2023-04-02T05:48:15.172Z,84.55
2023-04-02T05:49:15.200Z,85.17
2023-04-02T05:50:15.087Z,84.86
2023-04-02T05:51:15.059Z,84.55
2023-04-02T05:52:15.130Z,83.83
2023-04-02T05:53:15.054Z,83.93
2023-04-02T05:54:15.048Z,83.62
2023-04-02T05:55:15.008Z,83.51
2023-04-02T05:56:14.994Z,81.65
2023-04-02T05:57:15.063Z,80.92
2023-04-02T05:58:34.754Z,81.34
2023-04-02T05:59:16.011Z,81.54
2023-04-02T06:00:14.988Z,81.44
2023-04-02T06:01:14.928Z,81.02
2023-04-02T06:02:14.966Z,79.88
2023-04-02T06:03:15.004Z,79.78
2023-04-02T06:04:14.972Z,80.09
2023-04-02T06:05:14.881Z,79.99
2023-04-02T06:06:14.935Z,79.58
2023-04-02T06:07:14.880Z,79.27
2023-04-02T06:08:14.891Z,79.78
2023-04-02T06:09:14.848Z,79.58
2023-04-02T06:10:14.860Z,79.16
2023-04-02T06:11:14.822Z,79.02
2023-04-02T06:12:14.837Z,78.71
2023-04-02T06:13:14.792Z,79.13
2023-04-02T06:14:14.780Z,78.30
2023-04-02T06:15:14.764Z,79.23
2023-04-02T06:16:14.790Z,78.71
2023-04-02T06:17:14.710Z,79.02
2023-04-02T06:18:14.717Z,79.54
2023-04-02T06:19:14.744Z,78.19
2023-04-02T06:20:14.721Z,78.81
2023-04-02T06:21:14.669Z,78.92
2023-04-02T06:22:14.737Z,78.30
2023-04-02T06:23:14.666Z,78.40
2023-04-02T06:24:14.682Z,78.71
2023-04-02T06:25:14.614Z,79.44
2023-04-02T06:26:14.660Z,79.60
2023-04-02T06:27:14.648Z,78.19
2023-04-02T06:28:14.636Z,79.13
2023-04-02T06:29:14.585Z,78.09
2023-04-02T06:30:14.583Z,77.88
2023-04-02T06:31:14.581Z,78.50
2023-04-02T06:32:14.528Z,78.30
2023-04-02T06:33:14.535Z,78.92
2023-04-02T06:34:14.569Z,77.36
2023-04-02T06:35:14.516Z,78.50
2023-04-02T06:36:14.525Z,77.78
2023-04-02T06:37:14.473Z,78.81
2023-04-02T06:38:14.468Z,78.71
2023-04-02T06:39:14.459Z,78.19
2023-04-02T06:40:14.468Z,78.61
2023-04-02T06:41:14.444Z,79.19
2023-04-02T06:42:14.442Z,79.50
2023-04-02T06:43:14.415Z,78.78
2023-04-02T06:44:14.375Z,79.05
2023-04-02T06:45:14.395Z,79.36
2023-04-02T06:46:14.411Z,79.67
2023-04-02T06:47:14.385Z,79.02
2023-04-02T06:48:14.353Z,78.39
2023-04-02T06:49:14.342Z,78.08
2023-04-02T06:50:14.324Z,77.36
2023-04-02T06:51:14.329Z,77.36
2023-04-02T06:52:14.321Z,77.47
2023-04-02T06:53:14.266Z,77.15
2023-04-02T06:54:14.301Z,78.29
2023-04-02T06:55:14.313Z,78.60
2023-04-02T06:56:14.252Z,78.19
2023-04-02T06:57:14.351Z,78.08
2023-04-02T06:58:14.213Z,78.08
2023-04-02T06:59:14.201Z,77.64
2023-04-02T07:00:14.215Z,77.12
2023-04-02T07:01:14.205Z,76.70
2023-04-02T07:02:14.168Z,76.29
2023-04-02T07:03:14.150Z,77.84
2023-04-02T07:04:14.183Z,76.29
2023-04-02T07:05:14.199Z,75.29
2023-04-02T07:06:14.112Z,75.43
2023-04-02T07:07:14.117Z,76.74
2023-04-02T07:08:14.071Z,78.08
2023-04-02T07:09:14.068Z,78.08
2023-04-02T07:10:14.034Z,76.64
2023-04-02T07:11:14.022Z,77.74
2023-04-02T07:12:14.042Z,76.81
2023-04-02T07:13:13.999Z,76.60
2023-04-02T07:14:14.300Z,76.77
2023-04-02T07:15:13.981Z,76.36
2023-04-02T07:16:14.004Z,76.46
2023-04-02T07:17:13.960Z,76.53
2023-04-02T07:18:13.929Z,76.94
2023-04-02T07:19:13.932Z,75.05
2023-04-02T07:20:13.920Z,74.33
2023-04-02T07:21:13.961Z,74.95
2023-04-02T07:22:13.915Z,74.84
2023-04-02T07:23:15.264Z,73.26
2023-04-02T07:24:13.861Z,72.13
2023-04-02T07:25:13.860Z,72.64
2023-04-02T07:26:13.842Z,73.68
2023-04-02T07:27:13.850Z,73.02
2023-04-02T07:28:13.810Z,71.26
2023-04-02T07:29:13.800Z,70.54
2023-04-02T07:30:13.827Z,70.92
2023-04-02T07:31:13.817Z,70.00
2023-04-02T07:32:13.785Z,69.96
2023-04-02T07:33:13.815Z,70.10
2023-04-02T07:34:13.753Z,70.68
2023-04-02T07:35:13.723Z,70.68
2023-04-02T07:36:13.772Z,71.37
2023-04-02T07:37:13.693Z,69.14
2023-04-02T07:38:13.799Z,69.73
2023-04-02T07:39:13.660Z,69.52
2023-04-02T07:40:13.677Z,69.11
2023-04-02T07:41:13.698Z,69.42
2023-04-02T07:42:13.632Z,68.59
2023-04-02T07:43:13.653Z,69.42
2023-04-02T07:44:13.625Z,69.11
2023-04-02T07:45:13.602Z,68.21
2023-04-02T07:46:13.586Z,66.73
2023-04-02T07:47:13.577Z,69.31
2023-04-02T07:48:13.601Z,68.27
2023-04-02T07:49:13.548Z,67.79
2023-04-02T07:50:13.516Z,68.93
2023-04-02T07:51:13.528Z,68.90
2023-04-02T07:52:13.504Z,69.38
2023-04-02T07:53:13.504Z,68.86
2023-04-02T07:54:13.481Z,70.07
2023-04-02T07:55:13.471Z,68.52
2023-04-02T07:56:13.461Z,68.21
2023-04-02T07:57:13.504Z,68.93
2023-04-02T07:58:13.438Z,67.90
2023-04-02T07:59:13.417Z,67.93
2023-04-02T08:00:13.405Z,69.00
2023-04-02T08:01:13.389Z,68.72
2023-04-02T08:02:13.468Z,69.27
2023-04-02T08:03:13.399Z,70.89
2023-04-02T08:04:13.431Z,71.09
2023-04-02T08:05:13.373Z,71.30
2023-04-02T08:06:13.363Z,72.61
2023-04-02T08:07:13.346Z,70.06
2023-04-02T08:08:13.289Z,70.78
2023-04-02T08:09:13.291Z,70.13
2023-04-02T08:10:13.259Z,70.65
2023-04-02T08:11:13.281Z,70.23
2023-04-02T08:12:13.263Z,72.47
2023-04-02T08:13:13.220Z,71.85
2023-04-02T08:14:13.249Z,67.86
2023-04-02T08:15:13.230Z,69.13
2023-04-02T08:16:13.261Z,70.17
2023-04-02T08:17:13.199Z,71.99
2023-04-02T08:18:13.193Z,70.23
2023-04-02T08:19:13.151Z,70.82
2023-04-02T08:20:13.133Z,71.85
2023-04-02T08:21:14.644Z,68.90
2023-04-02T08:22:13.131Z,70.03
2023-04-02T08:23:13.101Z,71.64
2023-04-02T08:24:13.102Z,71.34
2023-04-02T08:25:13.084Z,68.90
2023-04-02T08:26:13.059Z,69.72
2023-04-02T08:27:13.074Z,70.65
2023-04-02T08:28:13.038Z,71.20
2023-04-02T08:29:13.023Z,71.58
2023-04-02T08:30:13.044Z,71.26
2023-04-02T08:31:13.107Z,70.99
2023-04-02T08:32:12.992Z,71.58
2023-04-02T08:33:13.076Z,71.47
2023-04-02T08:34:12.954Z,70.86
2023-04-02T08:35:12.951Z,70.34
2023-04-02T08:36:13.187Z,70.06
2023-04-02T08:37:12.976Z,70.20
2023-04-02T08:38:12.939Z,71.51
2023-04-02T08:39:12.932Z,72.02
2023-04-02T08:40:12.882Z,70.57
2023-04-02T08:41:12.884Z,70.40
2023-04-02T08:42:12.866Z,70.92
2023-04-02T08:43:12.872Z,71.54
2023-04-02T08:44:12.873Z,70.33
2023-04-02T08:45:24.236Z,72.19
2023-04-02T08:46:13.835Z,72.50
2023-04-02T08:47:12.836Z,71.37
2023-04-02T08:48:12.803Z,72.36
2023-04-02T08:49:12.813Z,71.95
2023-04-02T08:50:12.762Z,71.51
2023-04-02T08:51:12.767Z,71.61
2023-04-02T08:52:12.722Z,71.99
2023-04-02T08:53:12.738Z,72.19
2023-04-02T08:54:12.734Z,70.65
2023-04-02T08:55:12.740Z,70.44
2023-04-02T08:56:12.723Z,70.54
2023-04-02T08:57:12.723Z,69.51
2023-04-02T08:58:12.639Z,70.03
2023-04-02T08:59:12.649Z,69.62
2023-04-02T09:00:12.706Z,70.44
2023-04-02T09:01:12.683Z,69.10
2023-04-02T09:02:12.629Z,70.96
2023-04-02T09:03:12.619Z,68.27
2023-04-02T09:04:12.634Z,69.41
2023-04-02T09:05:12.771Z,70.44
2023-04-02T09:06:13.419Z,67.90
2023-04-02T09:07:12.540Z,68.51
2023-04-02T09:08:12.531Z,68.82
2023-04-02T09:09:12.518Z,68.10
2023-04-02T09:10:12.540Z,68.75
2023-04-02T09:11:12.511Z,67.85
2023-04-02T09:12:12.506Z,70.12
2023-04-02T09:13:12.452Z,69.61
2023-04-02T09:14:12.443Z,68.51
2023-04-02T09:15:12.448Z,68.74
2023-04-02T09:16:12.477Z,68.95
2023-04-02T09:17:12.491Z,70.40
2023-04-02T09:18:12.467Z,71.81
2023-04-02T09:19:12.399Z,70.47
2023-04-02T09:20:12.403Z,71.37
2023-04-02T09:21:12.365Z,71.47
2023-04-02T09:22:12.411Z,69.92
2023-04-02T09:23:12.336Z,69.61
2023-04-02T09:24:12.315Z,67.85
2023-04-02T09:25:12.325Z,68.58
2023-04-02T09:26:12.285Z,68.44
2023-04-02T09:27:12.298Z,68.30
2023-04-02T09:28:12.263Z,68.10
2023-04-02T09:29:12.251Z,68.79
2023-04-02T09:30:12.267Z,67.93
2023-04-02T09:31:12.288Z,67.29
2023-04-02T09:32:12.233Z,67.46
2023-04-02T09:33:12.234Z,67.33
2023-04-02T09:34:12.199Z,66.06
2023-04-02T09:35:22.331Z,64.83
2023-04-02T09:36:15.039Z,64.18
2023-04-02T09:37:12.162Z,63.53
2023-04-02T09:38:12.134Z,64.56
2023-04-02T09:39:12.158Z,63.71
2023-04-02T09:40:12.146Z,62.85
2023-04-02T09:41:12.110Z,64.57
2023-04-02T09:42:12.086Z,61.70
2023-04-02T09:43:12.077Z,62.18
2023-04-02T09:44:12.056Z,61.16
2023-04-02T09:45:12.050Z,61.64
2023-04-02T09:46:12.082Z,60.23
2023-04-02T09:47:12.037Z,61.08
2023-04-02T09:48:12.057Z,60.29
2023-04-02T09:49:11.996Z,62.96
2023-04-02T09:50:11.993Z,62.62
2023-04-02T09:51:12.000Z,61.18
2023-04-02T09:52:11.959Z,61.21
2023-04-02T09:53:11.955Z,63.13
2023-04-02T09:54:11.949Z,61.32
2023-04-02T09:55:11.957Z,61.00
2023-04-02T09:56:11.892Z,62.65
2023-04-02T09:57:11.937Z,61.14
2023-04-02T09:58:11.885Z,59.24
2023-04-02T09:59:11.933Z,61.91
2023-04-02T10:00:25.374Z,62.05
2023-04-02T10:01:12.889Z,62.46
2023-04-02T10:02:11.846Z,64.69
2023-04-02T10:03:11.822Z,63.76
2023-04-02T10:04:11.903Z,63.15
2023-04-02T10:05:11.841Z,61.74
2023-04-02T10:06:11.780Z,61.56
2023-04-02T10:07:11.814Z,64.44
2023-04-02T10:08:11.754Z,65.26
2023-04-02T10:09:11.748Z,61.98
2023-04-02T10:10:11.723Z,62.49
2023-04-02T10:11:11.746Z,63.93
2023-04-02T10:12:11.740Z,64.41
2023-04-02T10:13:11.706Z,63.49
2023-04-02T10:14:11.661Z,64.39
2023-04-02T10:15:11.668Z,63.97
2023-04-02T10:16:11.706Z,63.25
2023-04-02T10:17:11.682Z,63.15
2023-04-02T10:18:11.641Z,63.84
2023-04-02T10:19:11.647Z,63.84
2023-04-02T10:20:11.609Z,63.84
2023-04-02T10:21:11.602Z,63.91
2023-04-02T10:22:11.571Z,61.40
2023-04-02T10:23:11.542Z,63.05
2023-04-02T10:24:11.550Z,63.56
2023-04-02T10:25:11.537Z,63.97
2023-04-02T10:26:11.537Z,66.41
2023-04-02T10:27:11.523Z,64.46
2023-04-02T10:28:11.493Z,65.97
2023-04-02T10:29:11.499Z,65.32
2023-04-02T10:30:11.519Z,63.40
2023-04-02T10:31:11.508Z,63.20
2023-04-02T10:32:11.457Z,63.71
2023-04-02T10:33:11.469Z,63.98
2023-04-02T10:34:11.456Z,62.78
2023-04-02T10:35:11.422Z,63.91
2023-04-02T10:36:18.454Z,64.01
2023-04-02T10:37:11.388Z,64.73
2023-04-02T10:38:11.383Z,63.50
2023-04-02T10:39:11.358Z,63.68
2023-04-02T10:40:11.382Z,64.29
2023-04-02T10:41:11.339Z,63.37
2023-04-02T10:42:11.300Z,64.29
2023-04-02T10:43:11.302Z,63.37
2023-04-02T10:44:19.493Z,62.75
2023-04-02T10:45:12.280Z,62.09
2023-04-02T10:46:11.302Z,64.79
2023-04-02T10:47:11.242Z,63.87
2023-04-02T10:48:11.276Z,64.62
2023-04-02T10:49:11.275Z,64.00
2023-04-02T10:50:11.219Z,65.41
2023-04-02T10:51:11.196Z,62.97
2023-04-02T10:52:11.172Z,66.06
2023-04-02T10:53:11.191Z,65.86
2023-04-02T10:54:11.154Z,64.93
2023-04-02T10:55:11.173Z,66.24
2023-04-02T10:56:11.138Z,64.79
2023-04-02T10:57:11.171Z,64.07
2023-04-02T10:58:11.096Z,64.59
2023-04-02T10:59:11.096Z,64.18
2023-04-02T11:00:11.147Z,63.56
2023-04-02T11:01:11.082Z,65.00
2023-04-02T11:02:11.050Z,63.87
2023-04-02T11:03:11.103Z,63.35
2023-04-02T11:04:11.236Z,63.28
2023-04-02T11:05:11.033Z,65.23
2023-04-02T11:06:12.103Z,65.03
2023-04-02T11:07:14.452Z,66.64
2023-04-02T11:08:10.998Z,65.83
2023-04-02T11:09:10.960Z,62.38
2023-04-02T11:10:11.023Z,65.16
2023-04-02T11:11:10.963Z,64.24
2023-04-02T11:12:10.926Z,66.09
2023-04-02T11:13:10.966Z,67.30
2023-04-02T11:14:10.907Z,66.88
2023-04-02T11:15:10.908Z,65.55
2023-04-02T11:16:10.907Z,65.75
2023-04-02T11:17:10.852Z,65.44
2023-04-02T11:18:10.849Z,65.92
2023-04-02T11:19:10.837Z,65.41
2023-04-02T11:20:10.844Z,66.00
2023-04-02T11:21:10.815Z,65.28
2023-04-02T11:22:10.780Z,66.17
2023-04-02T11:23:10.791Z,66.14
2023-04-02T11:24:10.767Z,63.60
2023-04-02T11:25:10.768Z,62.88
2023-04-02T11:26:10.740Z,64.84
2023-04-02T11:27:10.723Z,63.12
2023-04-02T11:28:10.712Z,62.92
2023-04-02T11:29:10.708Z,63.12
2023-04-02T11:30:10.781Z,64.56
2023-04-02T11:31:10.749Z,64.63
2023-04-02T11:32:10.651Z,64.73
2023-04-02T11:33:10.671Z,64.60
2023-04-02T11:34:10.639Z,63.89
2023-04-02T11:35:10.635Z,62.14
2023-04-02T11:36:10.629Z,62.88
2023-04-02T11:37:10.653Z,62.96
2023-04-02T11:38:10.602Z,62.27
2023-04-02T11:39:16.995Z,62.16
2023-04-02T11:40:11.556Z,63.91
2023-04-02T11:41:10.544Z,64.60
2023-04-02T11:42:10.542Z,64.81
2023-04-02T11:43:10.538Z,63.37
2023-04-02T11:44:10.507Z,63.29
2023-04-02T11:45:10.502Z,63.89
2023-04-02T11:46:10.521Z,63.17
2023-04-02T11:47:10.478Z,61.79
2023-04-02T11:48:10.463Z,63.02
2023-04-02T11:49:10.466Z,62.60
2023-04-02T11:50:10.442Z,62.71
2023-04-02T11:51:10.420Z,62.40
2023-04-02T11:52:12.384Z,64.15
2023-04-02T11:53:10.392Z,64.60
2023-04-02T11:54:10.384Z,64.78
2023-04-02T11:55:10.359Z,63.62
2023-04-02T11:56:10.376Z,63.28
2023-04-02T11:57:10.370Z,62.95
2023-04-02T11:58:10.342Z,61.10
2023-04-02T11:59:10.317Z,61.58
2023-04-02T12:00:10.312Z,60.35
2023-04-02T12:01:10.291Z,59.05
2023-04-02T12:02:10.340Z,59.48
2023-04-02T12:03:10.285Z,60.10
2023-04-02T12:04:10.243Z,60.51
2023-04-02T12:05:10.343Z,62.12
2023-04-02T12:06:10.242Z,60.79
2023-04-02T12:07:10.218Z,61.30
2023-04-02T12:08:10.208Z,59.36
2023-04-02T12:09:10.180Z,59.87
2023-04-02T12:10:10.194Z,60.49
2023-04-02T12:11:10.181Z,59.56
2023-04-02T12:12:10.140Z,60.38
2023-04-02T12:13:10.124Z,60.58
2023-04-02T12:14:10.110Z,60.31
2023-04-02T12:15:10.127Z,61.02
2023-04-02T12:16:10.109Z,60.44
2023-04-02T12:17:10.171Z,61.57
2023-04-02T12:18:10.139Z,60.47
2023-04-02T12:19:10.070Z,62.18
2023-04-02T12:20:10.260Z,62.70
2023-04-02T12:21:10.029Z,62.39
2023-04-02T12:22:10.126Z,62.05
2023-04-02T12:23:10.035Z,62.77
2023-04-02T12:24:09.990Z,61.02
2023-04-02T12:25:09.981Z,60.41
2023-04-02T12:26:09.979Z,60.51
2023-04-02T12:27:09.999Z,60.28
2023-04-02T12:28:09.961Z,58.07
2023-04-02T12:29:09.926Z,57.15
2023-04-02T12:30:09.926Z,58.97
2023-04-02T12:31:09.912Z,56.30
2023-04-02T12:32:09.898Z,55.87
2023-04-02T12:33:09.926Z,56.25
2023-04-02T12:34:09.875Z,55.56
2023-04-02T12:35:09.869Z,55.77
2023-04-02T12:36:09.940Z,55.69
2023-04-02T12:37:09.829Z,57.94
2023-04-02T12:38:09.830Z,58.35
2023-04-02T12:39:09.787Z,58.15
2023-04-02T12:40:09.797Z,55.30
2023-04-02T12:41:09.762Z,56.84
2023-04-02T12:42:09.761Z,57.69
2023-04-02T12:43:09.751Z,56.67
2023-04-02T12:44:09.774Z,56.38
2023-04-02T12:45:09.737Z,56.69
2023-04-02T12:46:09.767Z,55.26
2023-04-02T12:47:09.699Z,58.51
2023-04-02T12:48:09.760Z,56.56
2023-04-02T12:49:09.699Z,56.84
2023-04-02T12:50:09.690Z,56.13
2023-04-02T12:51:09.682Z,56.00
2023-04-02T12:52:09.680Z,56.61